sensor_id;sensor_type;location;lat;lon;timestamp;P1;durP1;ratioP1;P2;durP2;ratioP2
33268;SDS011;19640;50.944;5.260;2022-08-04T00:00:32;4.60;;;1.75;;
33268;SDS011;19640;50.944;5.260;2022-08-04T00:08:04;2.75;;;1.60;;
33268;SDS011;19640;50.944;5.260;2022-08-04T00:10:30;2.92;;;1.63;;
33268;SDS011;19640;50.944;5.260;2022-08-04T00:12:58;1.70;;;1.30;;
33268;SDS011;19640;50.944;5.260;2022-08-04T00:15:26;5.70;;;1.70;;
33268;SDS011;19640;50.944;5.260;2022-08-04T00:18:05;2.25;;;1.50;;
33268;SDS011;19640;50.944;5.260;2022-08-04T00:20:33;5.07;;;2.00;;
33268;SDS011;19640;50.944;5.260;2022-08-04T00:23:01;3.20;;;1.50;;
33268;SDS011;19640;50.944;5.260;2022-08-04T00:25:28;4.47;;;1.55;;
33268;SDS011;19640;50.944;5.260;2022-08-04T00:27:53;3.65;;;1.58;;
33268;SDS011;19640;50.944;5.260;2022-08-04T00:30:19;7.40;;;1.60;;
33268;SDS011;19640;50.944;5.260;2022-08-04T00:32:45;5.45;;;1.42;;
33268;SDS011;19640;50.944;5.260;2022-08-04T00:35:14;4.65;;;1.42;;
33268;SDS011;19640;50.944;5.260;2022-08-04T00:37:42;2.63;;;1.38;;
33268;SDS011;19640;50.944;5.260;2022-08-04T00:40:18;5.10;;;1.73;;
33268;SDS011;19640;50.944;5.260;2022-08-04T00:43:12;4.20;;;1.20;;
33268;SDS011;19640;50.944;5.260;2022-08-04T01:02:42;2.65;;;1.30;;
33268;SDS011;19640;50.944;5.260;2022-08-04T01:16:41;8.15;;;1.08;;
33268;SDS011;19640;50.944;5.260;2022-08-04T01:30:41;1.70;;;1.20;;
33268;SDS011;19640;50.944;5.260;2022-08-04T01:33:10;1.90;;;1.13;;
33268;SDS011;19640;50.944;5.260;2022-08-04T01:36:00;4.25;;;1.40;;
33268;SDS011;19640;50.944;5.260;2022-08-04T01:38:28;4.63;;;1.30;;
33268;SDS011;19640;50.944;5.260;2022-08-04T01:41:02;3.08;;;1.20;;
33268;SDS011;19640;50.944;5.260;2022-08-04T01:43:29;3.00;;;1.40;;
33268;SDS011;19640;50.944;5.260;2022-08-04T01:45:58;1.73;;;1.10;;
33268;SDS011;19640;50.944;5.260;2022-08-04T01:48:26;4.35;;;1.20;;
33268;SDS011;19640;50.944;5.260;2022-08-04T01:50:55;2.13;;;1.30;;
33268;SDS011;19640;50.944;5.260;2022-08-04T01:53:22;2.80;;;1.30;;
33268;SDS011;19640;50.944;5.260;2022-08-04T01:56:02;4.60;;;1.20;;
33268;SDS011;19640;50.944;5.260;2022-08-04T01:58:30;5.20;;;1.42;;
33268;SDS011;19640;50.944;5.260;2022-08-04T02:01:04;4.85;;;1.40;;
33268;SDS011;19640;50.944;5.260;2022-08-04T02:03:35;2.10;;;1.25;;
33268;SDS011;19640;50.944;5.260;2022-08-04T02:11:15;4.70;;;1.27;;
33268;SDS011;19640;50.944;5.260;2022-08-04T02:14:01;2.22;;;1.40;;
33268;SDS011;19640;50.944;5.260;2022-08-04T02:17:11;1.98;;;1.25;;
33268;SDS011;19640;50.944;5.260;2022-08-04T02:19:49;2.65;;;1.30;;
33268;SDS011;19640;50.944;5.260;2022-08-04T02:22:26;3.28;;;1.63;;
33268;SDS011;19640;50.944;5.260;2022-08-04T02:24:57;4.82;;;1.27;;
33268;SDS011;19640;50.944;5.260;2022-08-04T02:27:34;4.63;;;1.50;;
33268;SDS011;19640;50.944;5.260;2022-08-04T02:30:13;6.68;;;1.35;;
33268;SDS011;19640;50.944;5.260;2022-08-04T02:32:39;2.63;;;1.65;;
33268;SDS011;19640;50.944;5.260;2022-08-04T02:37:40;4.07;;;1.88;;
33268;SDS011;19640;50.944;5.260;2022-08-04T02:40:10;3.17;;;1.67;;
33268;SDS011;19640;50.944;5.260;2022-08-04T02:42:36;4.78;;;1.40;;
33268;SDS011;19640;50.944;5.260;2022-08-04T02:45:02;3.08;;;1.50;;
33268;SDS011;19640;50.944;5.260;2022-08-04T02:47:30;3.17;;;1.67;;
33268;SDS011;19640;50.944;5.260;2022-08-04T02:49:57;3.38;;;1.20;;
33268;SDS011;19640;50.944;5.260;2022-08-04T02:52:23;3.78;;;1.67;;
33268;SDS011;19640;50.944;5.260;2022-08-04T02:54:52;7.72;;;1.50;;
33268;SDS011;19640;50.944;5.260;2022-08-04T02:57:20;3.42;;;1.60;;
33268;SDS011;19640;50.944;5.260;2022-08-04T03:00:08;2.95;;;1.58;;
33268;SDS011;19640;50.944;5.260;2022-08-04T03:05:16;2.15;;;1.40;;
33268;SDS011;19640;50.944;5.260;2022-08-04T03:19:11;2.60;;;1.40;;
33268;SDS011;19640;50.944;5.260;2022-08-04T03:38:43;5.82;;;1.60;;
33268;SDS011;19640;50.944;5.260;2022-08-04T03:44:00;3.67;;;1.40;;
33268;SDS011;19640;50.944;5.260;2022-08-04T03:46:45;4.90;;;1.63;;
33268;SDS011;19640;50.944;5.260;2022-08-04T03:52:08;2.38;;;1.50;;
33268;SDS011;19640;50.944;5.260;2022-08-04T03:55:23;2.08;;;1.30;;
33268;SDS011;19640;50.944;5.260;2022-08-04T04:04:00;4.43;;;2.20;;
33268;SDS011;19640;50.944;5.260;2022-08-04T04:07:00;4.80;;;1.75;;
33268;SDS011;19640;50.944;5.260;2022-08-04T04:12:16;3.40;;;1.83;;
33268;SDS011;19640;50.944;5.260;2022-08-04T04:15:19;5.22;;;2.08;;
33268;SDS011;19640;50.944;5.260;2022-08-04T04:18:13;7.22;;;2.63;;
33268;SDS011;19640;50.944;5.260;2022-08-04T04:24:13;4.93;;;1.50;;
33268;SDS011;19640;50.944;5.260;2022-08-04T04:27:05;3.78;;;1.70;;
33268;SDS011;19640;50.944;5.260;2022-08-04T04:30:03;4.03;;;1.85;;
33268;SDS011;19640;50.944;5.260;2022-08-04T04:32:37;4.45;;;1.50;;
33268;SDS011;19640;50.944;5.260;2022-08-04T04:39:02;3.72;;;1.67;;
33268;SDS011;19640;50.944;5.260;2022-08-04T04:41:35;3.92;;;1.90;;
33268;SDS011;19640;50.944;5.260;2022-08-04T04:46:42;2.33;;;1.33;;
33268;SDS011;19640;50.944;5.260;2022-08-04T04:54:50;1.80;;;1.30;;
33268;SDS011;19640;50.944;5.260;2022-08-04T04:57:21;3.75;;;1.60;;
33268;SDS011;19640;50.944;5.260;2022-08-04T04:59:49;3.28;;;1.60;;
33268;SDS011;19640;50.944;5.260;2022-08-04T05:07:45;5.97;;;1.55;;
33268;SDS011;19640;50.944;5.260;2022-08-04T05:13:01;4.85;;;1.45;;
33268;SDS011;19640;50.944;5.260;2022-08-04T05:15:41;4.45;;;1.50;;
33268;SDS011;19640;50.944;5.260;2022-08-04T05:18:11;3.13;;;1.50;;
33268;SDS011;19640;50.944;5.260;2022-08-04T05:20:44;7.32;;;1.77;;
33268;SDS011;19640;50.944;5.260;2022-08-04T05:23:16;3.03;;;1.20;;
33268;SDS011;19640;50.944;5.260;2022-08-04T05:28:15;2.35;;;1.40;;
33268;SDS011;19640;50.944;5.260;2022-08-04T05:30:45;7.40;;;1.92;;
33268;SDS011;19640;50.944;5.260;2022-08-04T05:33:14;4.10;;;1.63;;
33268;SDS011;19640;50.944;5.260;2022-08-04T05:35:45;8.75;;;1.50;;
33268;SDS011;19640;50.944;5.260;2022-08-04T05:38:16;4.90;;;3.00;;
33268;SDS011;19640;50.944;5.260;2022-08-04T05:40:44;4.45;;;1.83;;
33268;SDS011;19640;50.944;5.260;2022-08-04T05:43:10;2.95;;;1.40;;
33268;SDS011;19640;50.944;5.260;2022-08-04T05:45:38;4.03;;;1.60;;
33268;SDS011;19640;50.944;5.260;2022-08-04T05:48:05;3.80;;;1.50;;
33268;SDS011;19640;50.944;5.260;2022-08-04T05:50:32;2.60;;;1.25;;
33268;SDS011;19640;50.944;5.260;2022-08-04T05:52:59;3.65;;;1.45;;
33268;SDS011;19640;50.944;5.260;2022-08-04T05:55:26;2.42;;;1.45;;
33268;SDS011;19640;50.944;5.260;2022-08-04T05:57:54;2.42;;;1.40;;
33268;SDS011;19640;50.944;5.260;2022-08-04T06:00:21;9.65;;;1.83;;
33268;SDS011;19640;50.944;5.260;2022-08-04T06:02:48;11.77;;;1.70;;
33268;SDS011;19640;50.944;5.260;2022-08-04T06:05:16;3.20;;;1.27;;
33268;SDS011;19640;50.944;5.260;2022-08-04T06:07:43;2.90;;;1.58;;
33268;SDS011;19640;50.944;5.260;2022-08-04T06:10:09;4.93;;;1.50;;
33268;SDS011;19640;50.944;5.260;2022-08-04T06:12:37;5.57;;;1.80;;
33268;SDS011;19640;50.944;5.260;2022-08-04T06:15:17;3.90;;;1.83;;
33268;SDS011;19640;50.944;5.260;2022-08-04T06:17:46;3.10;;;1.50;;
33268;SDS011;19640;50.944;5.260;2022-08-04T06:20:19;7.80;;;1.67;;
33268;SDS011;19640;50.944;5.260;2022-08-04T06:22:48;3.92;;;1.80;;
33268;SDS011;19640;50.944;5.260;2022-08-04T06:25:18;2.45;;;1.70;;
33268;SDS011;19640;50.944;5.260;2022-08-04T06:27:48;2.42;;;1.42;;
33268;SDS011;19640;50.944;5.260;2022-08-04T06:30:15;4.20;;;1.63;;
33268;SDS011;19640;50.944;5.260;2022-08-04T06:32:43;2.47;;;1.30;;
33268;SDS011;19640;50.944;5.260;2022-08-04T06:35:19;7.18;;;1.80;;
33268;SDS011;19640;50.944;5.260;2022-08-04T06:37:46;4.05;;;1.52;;
33268;SDS011;19640;50.944;5.260;2022-08-04T06:40:13;4.63;;;1.70;;
33268;SDS011;19640;50.944;5.260;2022-08-04T06:42:41;1.88;;;1.40;;
33268;SDS011;19640;50.944;5.260;2022-08-04T06:45:08;3.88;;;1.80;;
33268;SDS011;19640;50.944;5.260;2022-08-04T06:47:36;4.38;;;1.60;;
33268;SDS011;19640;50.944;5.260;2022-08-04T06:50:03;5.22;;;2.15;;
33268;SDS011;19640;50.944;5.260;2022-08-04T06:52:30;5.57;;;2.15;;
33268;SDS011;19640;50.944;5.260;2022-08-04T06:54:55;3.40;;;2.22;;
33268;SDS011;19640;50.944;5.260;2022-08-04T06:57:22;4.93;;;2.28;;
33268;SDS011;19640;50.944;5.260;2022-08-04T07:00:03;4.43;;;2.60;;
33268;SDS011;19640;50.944;5.260;2022-08-04T07:02:37;11.80;;;3.10;;
33268;SDS011;19640;50.944;5.260;2022-08-04T07:05:06;5.88;;;2.72;;
33268;SDS011;19640;50.944;5.260;2022-08-04T07:07:32;5.00;;;2.70;;
33268;SDS011;19640;50.944;5.260;2022-08-04T07:09:59;6.78;;;3.17;;
33268;SDS011;19640;50.944;5.260;2022-08-04T07:12:26;5.60;;;2.70;;
33268;SDS011;19640;50.944;5.260;2022-08-04T07:14:52;4.88;;;3.00;;
33268;SDS011;19640;50.944;5.260;2022-08-04T07:17:18;6.70;;;3.25;;
33268;SDS011;19640;50.944;5.260;2022-08-04T07:19:46;10.65;;;3.63;;
33268;SDS011;19640;50.944;5.260;2022-08-04T07:22:11;6.15;;;3.45;;
33268;SDS011;19640;50.944;5.260;2022-08-04T07:24:38;6.82;;;3.88;;
33268;SDS011;19640;50.944;5.260;2022-08-04T07:27:05;7.20;;;3.78;;
33268;SDS011;19640;50.944;5.260;2022-08-04T07:29:32;4.80;;;4.30;;
33268;SDS011;19640;50.944;5.260;2022-08-04T07:32:01;6.93;;;4.18;;
33268;SDS011;19640;50.944;5.260;2022-08-04T07:34:28;10.93;;;4.10;;
33268;SDS011;19640;50.944;5.260;2022-08-04T07:36:55;5.97;;;4.03;;
33268;SDS011;19640;50.944;5.260;2022-08-04T07:39:23;13.43;;;3.85;;
33268;SDS011;19640;50.944;5.260;2022-08-04T07:41:50;7.60;;;4.22;;
33268;SDS011;19640;50.944;5.260;2022-08-04T07:44:17;7.93;;;4.13;;
33268;SDS011;19640;50.944;5.260;2022-08-04T07:46:44;10.32;;;4.32;;
33268;SDS011;19640;50.944;5.260;2022-08-04T07:49:10;6.00;;;3.30;;
33268;SDS011;19640;50.944;5.260;2022-08-04T07:51:36;8.25;;;4.13;;
33268;SDS011;19640;50.944;5.260;2022-08-04T07:54:04;7.22;;;3.55;;
33268;SDS011;19640;50.944;5.260;2022-08-04T07:56:32;7.90;;;4.45;;
33268;SDS011;19640;50.944;5.260;2022-08-04T07:59:00;6.07;;;3.78;;
33268;SDS011;19640;50.944;5.260;2022-08-04T08:01:26;8.27;;;4.68;;
33268;SDS011;19640;50.944;5.260;2022-08-04T08:03:53;13.23;;;3.92;;
33268;SDS011;19640;50.944;5.260;2022-08-04T08:06:21;9.20;;;4.30;;
33268;SDS011;19640;50.944;5.260;2022-08-04T08:08:47;7.07;;;4.18;;
33268;SDS011;19640;50.944;5.260;2022-08-04T08:11:13;7.25;;;4.72;;
33268;SDS011;19640;50.944;5.260;2022-08-04T08:13:41;6.65;;;4.47;;
33268;SDS011;19640;50.944;5.260;2022-08-04T08:16:08;8.52;;;4.35;;
33268;SDS011;19640;50.944;5.260;2022-08-04T08:18:34;10.00;;;4.60;;
33268;SDS011;19640;50.944;5.260;2022-08-04T08:20:59;7.32;;;4.05;;
33268;SDS011;19640;50.944;5.260;2022-08-04T08:23:25;8.85;;;4.70;;
33268;SDS011;19640;50.944;5.260;2022-08-04T08:25:54;6.38;;;3.75;;
33268;SDS011;19640;50.944;5.260;2022-08-04T08:28:21;5.97;;;3.72;;
33268;SDS011;19640;50.944;5.260;2022-08-04T08:30:47;6.43;;;3.45;;
33268;SDS011;19640;50.944;5.260;2022-08-04T08:33:13;10.82;;;3.55;;
33268;SDS011;19640;50.944;5.260;2022-08-04T08:38:08;6.93;;;3.33;;
33268;SDS011;19640;50.944;5.260;2022-08-04T08:45:55;8.25;;;2.80;;
33268;SDS011;19640;50.944;5.260;2022-08-04T08:48:34;8.77;;;2.50;;
33268;SDS011;19640;50.944;5.260;2022-08-04T08:51:28;9.55;;;2.25;;
33268;SDS011;19640;50.944;5.260;2022-08-04T08:56:42;10.00;;;1.80;;
33268;SDS011;19640;50.944;5.260;2022-08-04T09:04:51;4.05;;;1.60;;
33268;SDS011;19640;50.944;5.260;2022-08-04T09:10:05;4.97;;;1.45;;
33268;SDS011;19640;50.944;5.260;2022-08-04T09:23:45;3.08;;;1.30;;
33268;SDS011;19640;50.944;5.260;2022-08-04T09:26:33;7.07;;;1.30;;
33268;SDS011;19640;50.944;5.260;2022-08-04T09:29:20;6.03;;;1.40;;
33268;SDS011;19640;50.944;5.260;2022-08-04T09:40:39;4.60;;;1.23;;
33268;SDS011;19640;50.944;5.260;2022-08-04T09:47:56;6.13;;;1.60;;
33268;SDS011;19640;50.944;5.260;2022-08-04T09:50:39;11.25;;;1.40;;
33268;SDS011;19640;50.944;5.260;2022-08-04T09:58:14;8.48;;;1.50;;
33268;SDS011;19640;50.944;5.260;2022-08-04T10:00:46;16.95;;;1.40;;
33268;SDS011;19640;50.944;5.260;2022-08-04T10:03:15;12.00;;;2.53;;
33268;SDS011;19640;50.944;5.260;2022-08-04T10:20:00;6.30;;;1.20;;
33268;SDS011;19640;50.944;5.260;2022-08-04T10:22:57;3.90;;;1.48;;
33268;SDS011;19640;50.944;5.260;2022-08-04T10:28:44;8.80;;;1.90;;
33268;SDS011;19640;50.944;5.260;2022-08-04T10:31:19;4.72;;;1.45;;
33268;SDS011;19640;50.944;5.260;2022-08-04T10:33:51;13.52;;;1.90;;
33268;SDS011;19640;50.944;5.260;2022-08-04T10:36:23;3.70;;;1.60;;
33268;SDS011;19640;50.944;5.260;2022-08-04T10:39:00;10.80;;;1.80;;
33268;SDS011;19640;50.944;5.260;2022-08-04T10:47:32;5.95;;;1.70;;
33268;SDS011;19640;50.944;5.260;2022-08-04T10:50:05;6.20;;;1.65;;
33268;SDS011;19640;50.944;5.260;2022-08-04T10:52:43;4.47;;;1.25;;
33268;SDS011;19640;50.944;5.260;2022-08-04T10:55:20;6.18;;;1.88;;
33268;SDS011;19640;50.944;5.260;2022-08-04T10:57:52;12.02;;;1.50;;
33268;SDS011;19640;50.944;5.260;2022-08-04T11:00:24;5.70;;;1.42;;
33268;SDS011;19640;50.944;5.260;2022-08-04T11:03:06;5.50;;;1.35;;
33268;SDS011;19640;50.944;5.260;2022-08-04T11:05:57;4.05;;;1.30;;
33268;SDS011;19640;50.944;5.260;2022-08-04T11:11:11;5.15;;;1.80;;
33268;SDS011;19640;50.944;5.260;2022-08-04T11:22:20;6.18;;;1.38;;
33268;SDS011;19640;50.944;5.260;2022-08-04T11:30:35;10.43;;;1.52;;
33268;SDS011;19640;50.944;5.260;2022-08-04T11:33:09;8.52;;;1.45;;
33268;SDS011;19640;50.944;5.260;2022-08-04T11:35:46;9.02;;;1.75;;
33268;SDS011;19640;50.944;5.260;2022-08-04T11:40:49;4.18;;;1.25;;
33268;SDS011;19640;50.944;5.260;2022-08-04T11:43:26;8.82;;;1.52;;
33268;SDS011;19640;50.944;5.260;2022-08-04T11:46:00;6.00;;;1.67;;
33268;SDS011;19640;50.944;5.260;2022-08-04T11:48:32;9.18;;;1.75;;
33268;SDS011;19640;50.944;5.260;2022-08-04T11:51:01;5.55;;;1.30;;
33268;SDS011;19640;50.944;5.260;2022-08-04T11:53:29;3.17;;;1.42;;
33268;SDS011;19640;50.944;5.260;2022-08-04T11:56:03;5.00;;;1.92;;
33268;SDS011;19640;50.944;5.260;2022-08-04T11:58:29;11.68;;;2.17;;
33268;SDS011;19640;50.944;5.260;2022-08-04T12:00:59;4.38;;;2.65;;
33268;SDS011;19640;50.944;5.260;2022-08-04T12:04:07;5.97;;;2.05;;
33268;SDS011;19640;50.944;5.260;2022-08-04T12:09:35;14.23;;;2.17;;
33268;SDS011;19640;50.944;5.260;2022-08-04T12:17:26;7.32;;;1.95;;
33268;SDS011;19640;50.944;5.260;2022-08-04T12:19:57;6.07;;;1.70;;
33268;SDS011;19640;50.944;5.260;2022-08-04T12:22:27;4.43;;;1.55;;
33268;SDS011;19640;50.944;5.260;2022-08-04T12:25:09;3.88;;;1.40;;
33268;SDS011;19640;50.944;5.260;2022-08-04T12:27:45;6.47;;;2.00;;
33268;SDS011;19640;50.944;5.260;2022-08-04T12:30:17;10.90;;;2.30;;
33268;SDS011;19640;50.944;5.260;2022-08-04T12:35:32;6.18;;;2.22;;
33268;SDS011;19640;50.944;5.260;2022-08-04T12:38:20;7.72;;;2.20;;
33268;SDS011;19640;50.944;5.260;2022-08-04T12:40:57;11.38;;;2.65;;
33268;SDS011;19640;50.944;5.260;2022-08-04T12:43:42;5.30;;;2.15;;
33268;SDS011;19640;50.944;5.260;2022-08-04T12:46:12;6.10;;;2.08;;
33268;SDS011;19640;50.944;5.260;2022-08-04T12:48:50;8.07;;;2.67;;
33268;SDS011;19640;50.944;5.260;2022-08-04T12:51:17;10.35;;;2.65;;
33268;SDS011;19640;50.944;5.260;2022-08-04T12:53:44;7.65;;;2.28;;
33268;SDS011;19640;50.944;5.260;2022-08-04T12:56:12;8.25;;;2.53;;
33268;SDS011;19640;50.944;5.260;2022-08-04T12:58:45;14.18;;;2.63;;
33268;SDS011;19640;50.944;5.260;2022-08-04T13:06:29;8.73;;;2.67;;
33268;SDS011;19640;50.944;5.260;2022-08-04T13:09:04;7.03;;;2.90;;
33268;SDS011;19640;50.944;5.260;2022-08-04T13:11:39;13.05;;;2.55;;
33268;SDS011;19640;50.944;5.260;2022-08-04T13:14:06;6.57;;;3.08;;
33268;SDS011;19640;50.944;5.260;2022-08-04T13:16:36;7.82;;;2.63;;
33268;SDS011;19640;50.944;5.260;2022-08-04T13:19:04;7.20;;;3.20;;
33268;SDS011;19640;50.944;5.260;2022-08-04T13:21:32;9.70;;;2.17;;
33268;SDS011;19640;50.944;5.260;2022-08-04T13:24:03;4.95;;;2.30;;
33268;SDS011;19640;50.944;5.260;2022-08-04T13:26:32;6.88;;;3.08;;
33268;SDS011;19640;50.944;5.260;2022-08-04T13:29:02;9.05;;;2.83;;
33268;SDS011;19640;50.944;5.260;2022-08-04T13:31:30;7.70;;;2.30;;
33268;SDS011;19640;50.944;5.260;2022-08-04T13:34:02;9.02;;;2.55;;
33268;SDS011;19640;50.944;5.260;2022-08-04T13:36:31;13.05;;;2.30;;
33268;SDS011;19640;50.944;5.260;2022-08-04T13:38:59;5.32;;;2.00;;
33268;SDS011;19640;50.944;5.260;2022-08-04T13:41:31;6.47;;;2.35;;
33268;SDS011;19640;50.944;5.260;2022-08-04T13:44:01;7.70;;;2.75;;
33268;SDS011;19640;50.944;5.260;2022-08-04T13:46:35;5.35;;;2.47;;
33268;SDS011;19640;50.944;5.260;2022-08-04T13:49:06;10.05;;;3.00;;
33268;SDS011;19640;50.944;5.260;2022-08-04T13:51:35;9.18;;;3.22;;
33268;SDS011;19640;50.944;5.260;2022-08-04T13:54:02;12.70;;;3.17;;
33268;SDS011;19640;50.944;5.260;2022-08-04T13:56:36;7.38;;;2.53;;
33268;SDS011;19640;50.944;5.260;2022-08-04T13:59:08;10.65;;;2.72;;
33268;SDS011;19640;50.944;5.260;2022-08-04T14:01:35;6.35;;;2.75;;
33268;SDS011;19640;50.944;5.260;2022-08-04T14:04:11;4.88;;;2.40;;
33268;SDS011;19640;50.944;5.260;2022-08-04T14:06:44;13.05;;;2.42;;
33268;SDS011;19640;50.944;5.260;2022-08-04T14:11:47;5.38;;;1.92;;
33268;SDS011;19640;50.944;5.260;2022-08-04T14:14:18;4.15;;;2.40;;
33268;SDS011;19640;50.944;5.260;2022-08-04T14:19:28;4.35;;;2.05;;
33268;SDS011;19640;50.944;5.260;2022-08-04T14:22:34;6.13;;;2.80;;
33268;SDS011;19640;50.944;5.260;2022-08-04T14:27:50;6.47;;;2.65;;
33268;SDS011;19640;50.944;5.260;2022-08-04T14:30:27;8.57;;;2.72;;
33268;SDS011;19640;50.944;5.260;2022-08-04T14:33:05;8.10;;;2.90;;
33268;SDS011;19640;50.944;5.260;2022-08-04T14:35:33;5.50;;;2.50;;
33268;SDS011;19640;50.944;5.260;2022-08-04T14:38:02;7.30;;;2.17;;
33268;SDS011;19640;50.944;5.260;2022-08-04T14:40:31;5.22;;;2.13;;
33268;SDS011;19640;50.944;5.260;2022-08-04T14:42:58;5.95;;;2.08;;
33268;SDS011;19640;50.944;5.260;2022-08-04T14:45:28;4.65;;;1.40;;
33268;SDS011;19640;50.944;5.260;2022-08-04T14:47:59;3.30;;;1.40;;
33268;SDS011;19640;50.944;5.260;2022-08-04T14:50:33;4.78;;;2.20;;
33268;SDS011;19640;50.944;5.260;2022-08-04T14:53:19;7.38;;;1.90;;
33268;SDS011;19640;50.944;5.260;2022-08-04T14:55:50;5.80;;;1.77;;
33268;SDS011;19640;50.944;5.260;2022-08-04T14:58:22;7.25;;;2.20;;
33268;SDS011;19640;50.944;5.260;2022-08-04T15:00:52;4.15;;;1.50;;
33268;SDS011;19640;50.944;5.260;2022-08-04T15:03:20;2.75;;;1.80;;
33268;SDS011;19640;50.944;5.260;2022-08-04T15:05:47;7.38;;;2.15;;
33268;SDS011;19640;50.944;5.260;2022-08-04T15:08:13;2.85;;;1.92;;
33268;SDS011;19640;50.944;5.260;2022-08-04T15:10:40;4.28;;;2.03;;
33268;SDS011;19640;50.944;5.260;2022-08-04T15:13:07;3.67;;;1.67;;
33268;SDS011;19640;50.944;5.260;2022-08-04T15:15:33;5.63;;;1.80;;
33268;SDS011;19640;50.944;5.260;2022-08-04T15:17:59;5.25;;;1.80;;
33268;SDS011;19640;50.944;5.260;2022-08-04T15:20:25;5.43;;;1.88;;
33268;SDS011;19640;50.944;5.260;2022-08-04T15:22:50;10.10;;;1.80;;
33268;SDS011;19640;50.944;5.260;2022-08-04T15:25:16;5.32;;;2.10;;
33268;SDS011;19640;50.944;5.260;2022-08-04T15:27:45;7.97;;;1.75;;
33268;SDS011;19640;50.944;5.260;2022-08-04T15:30:14;5.82;;;1.70;;
33268;SDS011;19640;50.944;5.260;2022-08-04T15:33:02;6.90;;;1.90;;
33268;SDS011;19640;50.944;5.260;2022-08-04T15:35:28;3.70;;;1.83;;
33268;SDS011;19640;50.944;5.260;2022-08-04T15:45:53;4.43;;;1.98;;
33268;SDS011;19640;50.944;5.260;2022-08-04T15:48:22;7.75;;;2.00;;
33268;SDS011;19640;50.944;5.260;2022-08-04T15:53:23;5.80;;;1.73;;
33268;SDS011;19640;50.944;5.260;2022-08-04T15:55:53;5.13;;;2.17;;
33268;SDS011;19640;50.944;5.260;2022-08-04T15:58:20;3.42;;;1.50;;
33268;SDS011;19640;50.944;5.260;2022-08-04T16:03:47;2.83;;;1.67;;
33268;SDS011;19640;50.944;5.260;2022-08-04T16:11:57;3.03;;;1.23;;
33268;SDS011;19640;50.944;5.260;2022-08-04T16:14:07;4.68;;;1.70;;
33268;SDS011;19640;50.944;5.260;2022-08-04T16:19:16;6.10;;;1.67;;
33268;SDS011;19640;50.944;5.260;2022-08-04T16:21:48;4.30;;;1.60;;
33268;SDS011;19640;50.944;5.260;2022-08-04T16:26:44;5.57;;;2.58;;
33268;SDS011;19640;50.944;5.260;2022-08-04T16:37:18;4.85;;;1.80;;
33268;SDS011;19640;50.944;5.260;2022-08-04T16:39:44;8.07;;;1.73;;
33268;SDS011;19640;50.944;5.260;2022-08-04T16:50:11;3.75;;;1.45;;
33268;SDS011;19640;50.944;5.260;2022-08-04T16:52:47;6.82;;;1.85;;
33268;SDS011;19640;50.944;5.260;2022-08-04T16:55:17;3.83;;;2.05;;
33268;SDS011;19640;50.944;5.260;2022-08-04T16:57:47;7.60;;;1.98;;
33268;SDS011;19640;50.944;5.260;2022-08-04T17:00:15;4.45;;;2.10;;
33268;SDS011;19640;50.944;5.260;2022-08-04T17:02:42;7.13;;;2.10;;
33268;SDS011;19640;50.944;5.260;2022-08-04T17:05:19;4.95;;;1.63;;
33268;SDS011;19640;50.944;5.260;2022-08-04T17:07:49;8.73;;;1.52;;
33268;SDS011;19640;50.944;5.260;2022-08-04T17:10:17;3.92;;;1.67;;
33268;SDS011;19640;50.944;5.260;2022-08-04T17:12:43;3.80;;;1.60;;
33268;SDS011;19640;50.944;5.260;2022-08-04T17:15:18;6.68;;;1.67;;
33268;SDS011;19640;50.944;5.260;2022-08-04T17:17:48;5.88;;;1.38;;
33268;SDS011;19640;50.944;5.260;2022-08-04T17:20:14;17.63;;;2.15;;
33268;SDS011;19640;50.944;5.260;2022-08-04T17:22:40;2.25;;;1.67;;
33268;SDS011;19640;50.944;5.260;2022-08-04T17:25:06;3.22;;;1.77;;
33268;SDS011;19640;50.944;5.260;2022-08-04T17:27:33;2.47;;;1.70;;
33268;SDS011;19640;50.944;5.260;2022-08-04T17:29:59;7.70;;;1.92;;
33268;SDS011;19640;50.944;5.260;2022-08-04T17:32:25;4.65;;;1.85;;
33268;SDS011;19640;50.944;5.260;2022-08-04T17:34:55;4.10;;;1.90;;
33268;SDS011;19640;50.944;5.260;2022-08-04T17:37:26;8.93;;;1.95;;
33268;SDS011;19640;50.944;5.260;2022-08-04T17:39:52;11.30;;;2.00;;
33268;SDS011;19640;50.944;5.260;2022-08-04T17:42:32;3.90;;;1.63;;
33268;SDS011;19640;50.944;5.260;2022-08-04T17:45:12;7.72;;;1.98;;
33268;SDS011;19640;50.944;5.260;2022-08-04T17:47:47;5.65;;;1.80;;
33268;SDS011;19640;50.944;5.260;2022-08-04T17:50:22;3.53;;;1.65;;
33268;SDS011;19640;50.944;5.260;2022-08-04T17:53:04;6.28;;;1.90;;
33268;SDS011;19640;50.944;5.260;2022-08-04T17:55:37;3.08;;;1.73;;
33268;SDS011;19640;50.944;5.260;2022-08-04T17:58:11;5.03;;;1.65;;
33268;SDS011;19640;50.944;5.260;2022-08-04T18:00:40;4.03;;;1.60;;
33268;SDS011;19640;50.944;5.260;2022-08-04T18:03:06;4.28;;;1.70;;
33268;SDS011;19640;50.944;5.260;2022-08-04T18:05:31;2.45;;;1.67;;
33268;SDS011;19640;50.944;5.260;2022-08-04T18:08:04;7.47;;;2.50;;
33268;SDS011;19640;50.944;5.260;2022-08-04T18:10:38;2.67;;;1.73;;
33268;SDS011;19640;50.944;5.260;2022-08-04T18:13:05;2.38;;;1.83;;
33268;SDS011;19640;50.944;5.260;2022-08-04T18:15:32;1.92;;;1.50;;
33268;SDS011;19640;50.944;5.260;2022-08-04T18:17:58;5.35;;;1.48;;
33268;SDS011;19640;50.944;5.260;2022-08-04T18:20:24;2.65;;;1.60;;
33268;SDS011;19640;50.944;5.260;2022-08-04T18:22:51;5.72;;;2.20;;
33268;SDS011;19640;50.944;5.260;2022-08-04T18:25:17;7.63;;;2.50;;
33268;SDS011;19640;50.944;5.260;2022-08-04T18:27:55;5.75;;;2.47;;
33268;SDS011;19640;50.944;5.260;2022-08-04T18:30:22;5.28;;;2.55;;
33268;SDS011;19640;50.944;5.260;2022-08-04T18:32:48;3.30;;;2.22;;
33268;SDS011;19640;50.944;5.260;2022-08-04T18:35:16;4.93;;;2.40;;
33268;SDS011;19640;50.944;5.260;2022-08-04T18:37:42;3.95;;;2.10;;
33268;SDS011;19640;50.944;5.260;2022-08-04T18:40:08;5.70;;;1.70;;
33268;SDS011;19640;50.944;5.260;2022-08-04T18:42:34;2.92;;;1.98;;
33268;SDS011;19640;50.944;5.260;2022-08-04T18:45:01;5.22;;;2.15;;
33268;SDS011;19640;50.944;5.260;2022-08-04T18:47:28;4.25;;;1.80;;
33268;SDS011;19640;50.944;5.260;2022-08-04T18:49:54;5.57;;;2.30;;
33268;SDS011;19640;50.944;5.260;2022-08-04T18:52:20;6.55;;;2.20;;
33268;SDS011;19640;50.944;5.260;2022-08-04T18:54:46;3.67;;;2.35;;
33268;SDS011;19640;50.944;5.260;2022-08-04T18:57:17;4.20;;;2.30;;
33268;SDS011;19640;50.944;5.260;2022-08-04T18:59:44;5.43;;;2.08;;
33268;SDS011;19640;50.944;5.260;2022-08-04T19:02:10;4.40;;;2.22;;
33268;SDS011;19640;50.944;5.260;2022-08-04T19:04:35;5.90;;;2.38;;
33268;SDS011;19640;50.944;5.260;2022-08-04T19:07:01;4.25;;;1.60;;
33268;SDS011;19640;50.944;5.260;2022-08-04T19:09:29;3.33;;;1.67;;
33268;SDS011;19640;50.944;5.260;2022-08-04T19:11:54;4.75;;;1.80;;
33268;SDS011;19640;50.944;5.260;2022-08-04T19:14:21;4.85;;;1.70;;
33268;SDS011;19640;50.944;5.260;2022-08-04T19:16:46;4.88;;;1.55;;
33268;SDS011;19640;50.944;5.260;2022-08-04T19:19:12;6.00;;;1.73;;
33268;SDS011;19640;50.944;5.260;2022-08-04T19:21:39;2.97;;;1.60;;
33268;SDS011;19640;50.944;5.260;2022-08-04T19:24:05;3.67;;;1.40;;
33268;SDS011;19640;50.944;5.260;2022-08-04T19:26:31;3.15;;;1.50;;
33268;SDS011;19640;50.944;5.260;2022-08-04T19:28:57;3.40;;;1.38;;
33268;SDS011;19640;50.944;5.260;2022-08-04T19:31:22;5.07;;;1.60;;
33268;SDS011;19640;50.944;5.260;2022-08-04T19:33:49;5.10;;;1.65;;
33268;SDS011;19640;50.944;5.260;2022-08-04T19:36:14;5.15;;;1.60;;
33268;SDS011;19640;50.944;5.260;2022-08-04T19:38:40;4.40;;;1.50;;
33268;SDS011;19640;50.944;5.260;2022-08-04T19:41:07;2.10;;;1.13;;
33268;SDS011;19640;50.944;5.260;2022-08-04T19:43:33;2.40;;;1.30;;
33268;SDS011;19640;50.944;5.260;2022-08-04T19:45:59;7.53;;;1.70;;
33268;SDS011;19640;50.944;5.260;2022-08-04T19:48:25;3.40;;;1.55;;